createdAt,value
2023-03-25T00:02:07.252Z,97699.81
2023-03-25T00:04:35.216Z,97698.59
2023-03-25T00:07:02.642Z,97690.91
2023-03-25T00:09:29.105Z,97704.66
2023-03-25T00:11:55.678Z,97697.78
2023-03-25T00:14:22.148Z,97702.41
2023-03-25T00:16:48.847Z,97702.19
2023-03-25T00:19:18.313Z,97700.78
2023-03-25T00:21:44.838Z,97703.41
2023-03-25T00:24:12.472Z,97694.34
2023-03-25T00:26:42.643Z,97690.13
2023-03-25T00:29:09.847Z,97690.31
2023-03-25T00:31:36.334Z,97692.53
2023-03-25T00:34:02.789Z,97690.16
2023-03-25T00:36:29.619Z,97692.97
2023-03-25T00:38:56.142Z,97695.00
2023-03-25T00:41:25.680Z,97687.69
2023-03-25T00:43:54.425Z,97690.06
2023-03-25T00:46:22.822Z,97690.81
2023-03-25T00:48:50.717Z,97690.00
2023-03-25T00:51:21.312Z,97690.41
2023-03-25T00:53:52.941Z,97691.63
2023-03-25T00:56:20.707Z,97693.81
2023-03-25T00:58:47.198Z,97696.19
2023-03-25T01:01:23.288Z,97702.88
2023-03-25T01:03:57.713Z,97704.25
2023-03-25T01:06:32.321Z,97713.72
2023-03-25T01:09:00.948Z,97714.22
2023-03-25T01:11:30.657Z,97712.53
2023-03-25T01:13:59.797Z,97725.22
2023-03-25T01:16:27.449Z,97720.53
2023-03-25T01:18:55.622Z,97729.56
2023-03-25T01:21:22.312Z,97715.38
2023-03-25T01:23:48.945Z,97716.69
2023-03-25T01:26:15.475Z,97689.66
2023-03-25T01:28:43.872Z,97685.59
2023-03-25T01:31:13.773Z,97684.09
2023-03-25T01:33:40.431Z,97695.84
2023-03-25T01:36:12.877Z,97694.66
2023-03-25T01:38:40.821Z,97695.84
2023-03-25T01:41:08.183Z,97699.72
2023-03-25T01:43:35.505Z,97699.44
2023-03-25T01:46:02.136Z,97702.97
2023-03-25T01:48:36.012Z,97701.38
2023-03-25T01:51:12.868Z,97704.38
2023-03-25T01:53:40.297Z,97694.84
2023-03-25T01:56:10.359Z,97692.47
2023-03-25T01:58:37.256Z,97685.28
2023-03-25T02:01:04.223Z,97696.94
2023-03-25T02:03:37.246Z,97690.28
2023-03-25T02:06:28.528Z,97702.25
2023-03-25T02:08:58.543Z,97702.50
2023-03-25T02:11:29.139Z,97699.69
2023-03-25T02:14:00.169Z,97696.91
2023-03-25T02:17:05.713Z,97693.84
2023-03-25T02:19:47.323Z,97681.34
2023-03-25T02:22:49.824Z,97678.00
2023-03-25T02:25:39.833Z,97682.88
2023-03-25T02:28:26.037Z,97680.25
2023-03-25T02:31:14.300Z,97683.69
2023-03-25T02:34:02.125Z,97683.16
2023-03-25T02:36:57.064Z,97684.16
2023-03-25T02:39:42.548Z,97684.03
2023-03-25T02:42:20.276Z,97670.94
2023-03-25T02:44:59.514Z,97684.97
2023-03-25T02:47:32.864Z,97683.22
2023-03-25T02:50:17.700Z,97665.50
2023-03-25T02:52:50.438Z,97657.38
2023-03-25T02:55:19.713Z,97669.13
2023-03-25T02:57:49.714Z,97652.94
2023-03-25T03:00:20.842Z,97659.03
2023-03-25T03:03:00.215Z,97652.69
2023-03-25T03:05:31.814Z,97646.44
2023-03-25T03:08:27.848Z,97655.19
2023-03-25T03:11:22.756Z,97656.78
2023-03-25T03:14:19.311Z,97657.00
2023-03-25T03:17:03.497Z,97658.31
2023-03-25T03:19:46.149Z,97639.44
2023-03-25T03:22:34.248Z,97654.19
2023-03-25T03:25:16.049Z,97647.91
2023-03-25T03:27:48.623Z,97654.75
2023-03-25T03:30:39.530Z,97656.81
2023-03-25T03:33:16.853Z,97664.88
2023-03-25T03:35:57.439Z,97657.88
2023-03-25T03:38:30.707Z,97651.38
2023-03-25T03:41:01.692Z,97661.06
2023-03-25T03:43:36.407Z,97662.69
2023-03-25T03:46:07.621Z,97664.44
2023-03-25T03:48:41.778Z,97673.38
2023-03-25T03:51:24.450Z,97687.47
2023-03-25T03:54:00.495Z,97691.03
2023-03-25T03:56:46.296Z,97683.91
2023-03-25T03:59:19.849Z,97688.28
2023-03-25T04:01:53.927Z,97684.41
2023-03-25T04:04:27.032Z,97693.09
2023-03-25T04:07:14.784Z,97692.47
2023-03-25T04:09:57.762Z,97692.75
2023-03-25T04:12:32.341Z,97699.91
2023-03-25T04:15:03.791Z,97700.69
2023-03-25T04:17:32.829Z,97708.63
2023-03-25T04:20:00.111Z,97703.31
2023-03-25T04:22:26.544Z,97705.22
2023-03-25T04:24:54.941Z,97701.59
2023-03-25T04:27:29.743Z,97705.00
2023-03-25T04:29:57.667Z,97703.56
2023-03-25T04:32:27.717Z,97708.63
2023-03-25T04:34:58.575Z,97700.34
2023-03-25T04:37:28.402Z,97698.28
2023-03-25T04:39:56.171Z,97700.69
2023-03-25T04:42:25.663Z,97705.56
2023-03-25T04:44:52.794Z,97704.78
2023-03-25T04:47:23.345Z,97708.25
2023-03-25T04:49:49.883Z,97706.47
2023-03-25T04:52:16.572Z,97704.66
2023-03-25T04:54:44.726Z,97702.63
2023-03-25T04:57:11.297Z,97712.56
2023-03-25T04:59:38.353Z,97724.13
2023-03-25T05:02:13.315Z,97713.88
2023-03-25T05:04:47.547Z,97718.69
2023-03-25T05:07:16.269Z,97728.00
2023-03-25T05:09:43.301Z,97727.19
2023-03-25T05:12:11.318Z,97715.69
2023-03-25T05:14:37.896Z,97710.91
2023-03-25T05:17:04.310Z,97715.56
2023-03-25T05:19:34.806Z,97711.34
2023-03-25T05:22:03.051Z,97717.00
2023-03-25T05:24:29.609Z,97726.09
2023-03-25T05:26:56.047Z,97718.63
2023-03-25T05:29:22.654Z,97724.31
2023-03-25T05:31:49.470Z,97735.53
2023-03-25T05:34:16.990Z,97728.13
2023-03-25T05:36:43.758Z,97742.72
2023-03-25T05:39:10.964Z,97737.91
2023-03-25T05:41:40.658Z,97741.34
2023-03-25T05:44:09.189Z,97739.72
2023-03-25T05:46:36.214Z,97742.00
2023-03-25T05:49:02.938Z,97754.13
2023-03-25T05:51:38.640Z,97760.25
2023-03-25T05:54:10.897Z,97747.13
2023-03-25T05:56:38.299Z,97755.00
2023-03-25T05:59:04.928Z,97744.94
2023-03-25T06:01:34.123Z,97763.56
2023-03-25T06:04:02.546Z,97766.16
2023-03-25T06:06:31.853Z,97755.97
2023-03-25T06:08:58.707Z,97768.50
2023-03-25T06:11:25.722Z,97770.13
2023-03-25T06:13:52.543Z,97773.41
2023-03-25T06:16:27.481Z,97769.38
2023-03-25T06:18:59.520Z,97760.50
2023-03-25T06:21:28.194Z,97748.41
2023-03-25T06:23:55.386Z,97751.69
2023-03-25T06:26:23.162Z,97750.88
2023-03-25T06:28:49.703Z,97742.50
2023-03-25T06:31:18.819Z,97740.47
2023-03-25T06:33:46.157Z,97741.84
2023-03-25T06:36:15.400Z,97739.88
2023-03-25T06:38:42.118Z,97737.03
2023-03-25T06:41:11.847Z,97737.69
2023-03-25T06:43:38.828Z,97733.66
2023-03-25T06:46:25.320Z,97733.25
2023-03-25T06:49:14.802Z,97737.69
2023-03-25T06:51:41.270Z,97733.63
2023-03-25T06:54:07.795Z,97740.09
2023-03-25T06:56:34.482Z,97741.97
2023-03-25T06:59:01.016Z,97740.34
2023-03-25T07:01:28.341Z,97736.88
2023-03-25T07:03:54.834Z,97727.97
2023-03-25T07:06:22.761Z,97733.75
2023-03-25T07:08:49.523Z,97718.88
2023-03-25T07:11:19.791Z,97727.25
2023-03-25T07:13:46.247Z,97718.03
2023-03-25T07:16:14.675Z,97728.16
2023-03-25T07:18:41.423Z,97726.16
2023-03-25T07:21:08.004Z,97722.91
2023-03-25T07:23:34.563Z,97724.13
2023-03-25T07:26:01.122Z,97716.63
2023-03-25T07:28:27.584Z,97723.31
2023-03-25T07:30:54.217Z,97732.84
2023-03-25T07:33:20.883Z,97719.28
2023-03-25T07:35:47.429Z,97721.06
2023-03-25T07:38:13.982Z,97719.66
2023-03-25T07:40:40.639Z,97722.28
2023-03-25T07:43:07.217Z,97732.84
2023-03-25T07:45:56.676Z,97717.25
2023-03-25T07:48:24.237Z,97723.31
2023-03-25T07:50:52.581Z,97723.31
2023-03-25T07:53:19.377Z,97734.44
2023-03-25T07:55:46.413Z,97719.28
2023-03-25T07:58:12.949Z,97723.53
2023-03-25T08:00:39.398Z,97740.75
2023-03-25T08:03:06.559Z,97738.28
2023-03-25T08:05:33.413Z,97726.69
2023-03-25T08:08:00.252Z,97739.44
2023-03-25T08:10:27.139Z,97746.50
2023-03-25T08:12:53.881Z,97747.63
2023-03-25T08:15:21.725Z,97743.72
2023-03-25T08:17:48.261Z,97743.13
2023-03-25T08:20:15.598Z,97728.97
2023-03-25T08:22:44.695Z,97736.34
2023-03-25T08:25:11.613Z,97735.97
2023-03-25T08:27:38.155Z,97737.81
2023-03-25T08:30:05.317Z,97732.59
2023-03-25T08:32:31.810Z,97732.03
2023-03-25T08:34:58.406Z,97737.47
2023-03-25T08:37:25.818Z,97735.03
2023-03-25T08:39:55.209Z,97734.44
2023-03-25T08:42:21.668Z,97738.47
2023-03-25T08:44:48.109Z,97751.03
2023-03-25T08:47:14.544Z,97760.19
2023-03-25T08:49:41.152Z,97753.47
2023-03-25T08:52:08.773Z,97746.78
2023-03-25T08:54:35.387Z,97745.78
2023-03-25T08:57:02.005Z,97746.19
2023-03-25T08:59:28.563Z,97738.44
2023-03-25T09:01:56.129Z,97729.75
2023-03-25T09:04:23.689Z,97735.44
2023-03-25T09:07:10.772Z,97723.72
2023-03-25T09:09:38.541Z,97726.41
2023-03-25T09:12:06.465Z,97726.72
2023-03-25T09:14:33.241Z,97729.66
2023-03-25T09:16:59.904Z,97743.31
2023-03-25T09:19:26.404Z,97736.56
2023-03-25T09:21:53.043Z,97749.69
2023-03-25T09:24:19.560Z,97746.63
2023-03-25T09:26:46.021Z,97749.19
2023-03-25T09:29:12.496Z,97747.59
2023-03-25T09:31:38.987Z,97746.78
2023-03-25T09:34:06.384Z,97743.53
2023-03-25T09:36:32.884Z,97741.69
2023-03-25T09:38:59.360Z,97739.75
2023-03-25T09:41:44.563Z,97742.25
2023-03-25T09:44:32.141Z,97740.31
2023-03-25T09:47:02.047Z,97724.50
2023-03-25T09:49:40.012Z,97729.13
2023-03-25T09:52:15.369Z,97734.63
2023-03-25T09:54:48.607Z,97729.03
2023-03-25T09:57:20.597Z,97731.78
2023-03-25T09:59:51.542Z,97735.69
2023-03-25T10:02:41.764Z,97730.50
2023-03-25T10:05:33.349Z,97745.22
2023-03-25T10:08:21.801Z,97737.47
2023-03-25T10:11:13.172Z,97778.19
2023-03-25T10:13:54.910Z,97778.34
2023-03-25T10:16:33.591Z,97795.00
2023-03-25T10:19:21.265Z,97791.31
2023-03-25T10:21:58.432Z,97796.09
2023-03-25T10:24:34.750Z,97803.72
2023-03-25T10:27:12.945Z,97806.91
2023-03-25T10:29:45.732Z,97822.28
2023-03-25T10:32:44.398Z,97832.53
2023-03-25T10:35:32.132Z,97817.69
2023-03-25T10:38:08.786Z,97815.88
2023-03-25T10:40:49.937Z,97814.56
2023-03-25T10:43:36.289Z,97821.19
2023-03-25T10:46:32.123Z,97824.03
2023-03-25T10:48:58.694Z,97821.34
2023-03-25T10:51:34.648Z,97831.63
2023-03-25T10:54:01.727Z,97834.88
2023-03-25T10:56:36.536Z,97837.72
2023-03-25T10:59:31.641Z,97834.63
2023-03-25T11:01:59.513Z,97841.66
2023-03-25T11:04:39.555Z,97845.38
2023-03-25T11:07:16.454Z,97837.06
2023-03-25T11:09:42.935Z,97826.09
2023-03-25T11:12:09.648Z,97822.84
2023-03-25T11:14:39.945Z,97826.34
2023-03-25T11:17:18.412Z,97827.28
2023-03-25T11:20:00.661Z,97828.06
2023-03-25T11:22:30.154Z,97820.44
2023-03-25T11:25:12.440Z,97817.56
2023-03-25T11:28:13.641Z,97820.16
2023-03-25T11:31:30.551Z,97822.91
2023-03-25T11:34:11.905Z,97820.16
2023-03-25T11:36:41.231Z,97815.88
2023-03-25T11:39:23.849Z,97810.97
2023-03-25T11:41:51.468Z,97824.00
2023-03-25T11:44:32.832Z,97826.06
2023-03-25T11:47:09.338Z,97824.88
2023-03-25T11:49:39.955Z,97815.28
2023-03-25T11:52:18.009Z,97825.00
2023-03-25T11:54:45.172Z,97817.84
2023-03-25T11:57:19.638Z,97817.75
2023-03-25T11:59:48.197Z,97824.22
2023-03-25T12:02:29.874Z,97810.78
2023-03-25T12:05:03.270Z,97804.25
2023-03-25T12:07:30.240Z,97798.97
2023-03-25T12:09:58.695Z,97817.19
2023-03-25T12:12:45.937Z,97816.06
2023-03-25T12:15:21.862Z,97825.63
2023-03-25T12:17:57.309Z,97813.91
2023-03-25T12:20:54.628Z,97816.69
2023-03-25T12:23:45.562Z,97817.47
2023-03-25T12:26:17.001Z,97817.91
2023-03-25T12:29:09.708Z,97823.06
2023-03-25T12:31:57.838Z,97815.78
2023-03-25T12:34:32.597Z,97814.16
2023-03-25T12:37:19.402Z,97824.19
2023-03-25T12:40:11.199Z,97816.81
2023-03-25T12:43:03.807Z,97807.41
2023-03-25T12:45:33.162Z,97806.88
2023-03-25T12:48:30.624Z,97810.34
2023-03-25T12:51:06.741Z,97800.13
2023-03-25T12:53:41.202Z,97801.66
2023-03-25T12:56:27.385Z,97786.88
2023-03-25T12:59:22.937Z,97800.00
2023-03-25T13:02:14.722Z,97804.63
2023-03-25T13:05:03.240Z,97851.44
2023-03-25T13:07:40.895Z,97831.16
2023-03-25T13:10:18.653Z,97807.81
2023-03-25T13:12:53.752Z,97793.69
2023-03-25T13:15:27.392Z,97788.19
2023-03-25T13:18:04.055Z,97784.81
2023-03-25T13:20:37.621Z,97785.31
2023-03-25T13:23:07.752Z,97789.34
2023-03-25T13:25:57.097Z,97798.38
2023-03-25T13:28:38.231Z,97790.78
2023-03-25T13:31:08.319Z,97797.34
2023-03-25T13:33:40.656Z,97784.19
2023-03-25T13:36:22.363Z,97777.59
2023-03-25T13:38:53.521Z,97776.97
2023-03-25T13:41:29.980Z,97784.47
2023-03-25T13:44:19.823Z,97770.78
2023-03-25T13:46:52.427Z,97755.66
2023-03-25T13:49:27.447Z,97761.75
2023-03-25T13:51:54.026Z,97765.13
2023-03-25T13:54:32.512Z,97754.84
2023-03-25T13:57:19.134Z,97768.91
2023-03-25T14:00:06.010Z,97751.84
2023-03-25T14:02:57.401Z,97758.75
2023-03-25T14:05:45.296Z,97766.81
2023-03-25T14:08:31.267Z,97758.53
2023-03-25T14:11:17.501Z,97761.50
2023-03-25T14:13:59.315Z,97763.25
2023-03-25T14:16:34.903Z,97778.66
2023-03-25T14:19:11.540Z,97780.31
2023-03-25T14:21:38.308Z,97776.63
2023-03-25T14:24:18.582Z,97765.19
2023-03-25T14:26:50.455Z,97767.03
2023-03-25T14:29:31.403Z,97759.88
2023-03-25T14:32:45.715Z,97770.13
2023-03-25T14:35:32.749Z,97763.56
2023-03-25T14:38:18.789Z,97763.81
2023-03-25T14:41:02.090Z,97757.69
2023-03-25T14:43:38.355Z,97750.91
2023-03-25T14:46:10.949Z,97760.38
2023-03-25T14:48:46.289Z,97751.38
2023-03-25T14:51:25.952Z,97745.75
2023-03-25T14:53:56.857Z,97746.56
2023-03-25T14:56:34.252Z,97732.81
2023-03-25T14:59:10.403Z,97741.13
2023-03-25T15:01:40.425Z,97723.22
2023-03-25T15:04:14.931Z,97749.47
2023-03-25T15:06:42.724Z,97733.59
2023-03-25T15:09:12.967Z,97726.69
2023-03-25T15:11:43.270Z,97722.03
2023-03-25T15:14:16.574Z,97739.28
2023-03-25T15:16:45.960Z,97736.06
2023-03-25T15:19:14.380Z,97734.44
2023-03-25T15:22:17.349Z,97718.19
2023-03-25T15:24:50.936Z,97726.56
2023-03-25T15:27:51.976Z,97730.72
2023-03-25T15:30:30.586Z,97723.94
2023-03-25T15:33:21.163Z,97732.91
2023-03-25T15:36:33.490Z,97715.19
2023-03-25T15:39:09.120Z,97733.50
2023-03-25T15:41:59.464Z,97737.91
2023-03-25T15:44:47.810Z,97728.69
2023-03-25T15:47:21.534Z,97720.59
2023-03-25T15:50:25.693Z,97739.31
2023-03-25T15:53:13.620Z,97743.03
2023-03-25T15:55:55.308Z,97729.66
2023-03-25T15:58:23.047Z,97733.69
2023-03-25T16:00:55.942Z,97733.72
2023-03-25T16:03:27.467Z,97732.06
2023-03-25T16:05:59.676Z,97720.78
2023-03-25T16:08:36.848Z,97722.94
2023-03-25T16:11:18.984Z,97716.53
2023-03-25T16:13:45.651Z,97730.25
2023-03-25T16:16:17.269Z,97715.97
2023-03-25T16:18:46.067Z,97715.69
2023-03-25T16:21:12.857Z,97720.66
2023-03-25T16:23:39.695Z,97714.81
2023-03-25T16:26:06.636Z,97723.84
2023-03-25T16:28:39.290Z,97713.47
2023-03-25T16:31:06.110Z,97714.66
2023-03-25T16:33:38.941Z,97713.13
2023-03-25T16:36:15.416Z,97720.69
2023-03-25T16:38:43.290Z,97717.19
2023-03-25T16:41:15.134Z,97720.28
2023-03-25T16:43:42.783Z,97722.25
2023-03-25T16:46:11.780Z,97726.91
2023-03-25T16:48:53.500Z,97729.25
2023-03-25T16:51:32.035Z,97734.53
2023-03-25T16:54:01.675Z,97745.63
2023-03-25T16:56:32.920Z,97756.84
2023-03-25T16:59:16.085Z,97757.69
2023-03-25T17:01:50.465Z,97758.09
2023-03-25T17:04:26.178Z,97764.84
2023-03-25T17:07:09.326Z,97779.47
2023-03-25T17:09:40.016Z,97795.56
2023-03-25T17:12:09.208Z,97838.44
2023-03-25T17:14:42.761Z,97840.41
2023-03-25T17:17:31.939Z,97883.41
2023-03-25T17:20:02.902Z,97895.19
2023-03-25T17:22:39.512Z,97928.41
2023-03-25T17:25:32.444Z,97900.78
2023-03-25T17:28:19.832Z,97903.53
2023-03-25T17:30:46.698Z,97903.06
2023-03-25T17:33:19.493Z,97911.16
2023-03-25T17:35:54.132Z,97912.06
2023-03-25T17:38:45.191Z,97905.00
2023-03-25T17:41:14.347Z,97911.28
2023-03-25T17:43:43.920Z,97899.31
2023-03-25T17:46:10.655Z,97898.84
2023-03-25T17:48:37.268Z,97900.19
2023-03-25T17:51:04.047Z,97903.53
2023-03-25T17:53:30.565Z,97902.84
2023-03-25T17:55:59.161Z,97902.06
2023-03-25T17:58:25.811Z,97898.72
2023-03-25T18:00:53.102Z,97897.63
2023-03-25T18:03:22.875Z,97901.72
2023-03-25T18:05:54.095Z,97898.84
2023-03-25T18:08:22.997Z,97901.03
2023-03-25T18:10:53.678Z,97906.00
2023-03-25T18:13:24.975Z,97908.22
2023-03-25T18:15:53.101Z,97903.53
2023-03-25T18:18:26.174Z,97914.25
2023-03-25T18:20:55.945Z,97915.78
2023-03-25T18:23:23.729Z,97911.63
2023-03-25T18:25:50.500Z,97912.00
2023-03-25T18:28:17.215Z,97915.59
2023-03-25T18:30:49.928Z,97927.59
2023-03-25T18:33:17.361Z,97920.88
2023-03-25T18:35:45.375Z,97921.09
2023-03-25T18:38:24.455Z,97915.84
2023-03-25T18:40:52.868Z,97916.47
2023-03-25T18:43:20.100Z,97932.81
2023-03-25T18:45:47.565Z,97926.50
2023-03-25T18:48:16.962Z,97925.69
2023-03-25T18:50:50.231Z,97926.34
2023-03-25T18:53:16.892Z,97935.09
2023-03-25T18:55:43.500Z,97937.53
2023-03-25T18:58:18.846Z,97941.84
2023-03-25T19:00:48.330Z,97938.03
2023-03-25T19:03:15.670Z,97937.06
2023-03-25T19:05:43.080Z,97943.81
2023-03-25T19:08:18.786Z,97936.38
2023-03-25T19:10:46.002Z,97945.66
2023-03-25T19:13:12.595Z,97944.00
2023-03-25T19:15:39.995Z,97939.91
2023-03-25T19:18:06.776Z,97935.03
2023-03-25T19:20:35.813Z,97941.91
2023-03-25T19:23:04.515Z,97936.53
2023-03-25T19:25:31.122Z,97942.34
2023-03-25T19:27:57.564Z,97937.38
2023-03-25T19:30:25.138Z,97952.28
2023-03-25T19:32:57.146Z,97951.00
2023-03-25T19:35:23.760Z,97950.06
2023-03-25T19:37:56.140Z,97954.13
2023-03-25T19:40:26.087Z,97966.06
2023-03-25T19:42:54.687Z,97958.56
2023-03-25T19:45:21.579Z,97965.25
2023-03-25T19:47:48.930Z,97963.88
2023-03-25T19:50:18.873Z,97966.88
2023-03-25T19:52:47.007Z,97964.88
2023-03-25T19:55:14.074Z,97962.88
2023-03-25T19:57:42.197Z,97957.19
2023-03-25T20:00:13.949Z,97953.19
2023-03-25T20:02:45.348Z,97946.88
2023-03-25T20:05:13.550Z,97939.00
2023-03-25T20:07:42.685Z,97936.28
2023-03-25T20:10:19.601Z,97928.84
2023-03-25T20:12:48.028Z,97931.47
2023-03-25T20:15:16.153Z,97929.53
2023-03-25T20:17:43.168Z,97926.56
2023-03-25T20:20:12.201Z,97924.75
2023-03-25T20:22:39.739Z,97925.78
2023-03-25T20:25:07.751Z,97933.41
2023-03-25T20:27:34.762Z,97932.78
2023-03-25T20:30:01.400Z,97928.72
2023-03-25T20:32:39.870Z,97935.47
2023-03-25T20:35:08.111Z,97934.22
2023-03-25T20:37:36.873Z,97921.78
2023-03-25T20:40:05.055Z,97926.47
2023-03-25T20:42:31.573Z,97919.84
2023-03-25T20:44:58.028Z,97918.91
2023-03-25T20:47:24.631Z,97924.53
2023-03-25T20:49:51.097Z,97925.19
2023-03-25T20:52:17.550Z,97936.75
2023-03-25T20:54:44.349Z,97922.00
2023-03-25T20:57:10.895Z,97933.06
2023-03-25T20:59:37.448Z,97926.00
2023-03-25T21:02:04.012Z,97931.38
2023-03-25T21:04:30.598Z,97926.22
2023-03-25T21:06:57.353Z,97924.38
2023-03-25T21:09:24.024Z,97926.44
2023-03-25T21:11:50.859Z,97930.03
2023-03-25T21:14:18.676Z,97929.97
2023-03-25T21:16:45.652Z,97924.09
2023-03-25T21:19:12.843Z,97922.84
2023-03-25T21:21:39.443Z,97926.09
2023-03-25T21:24:06.887Z,97926.91
2023-03-25T21:26:34.457Z,97927.28
2023-03-25T21:29:01.027Z,97922.22
2023-03-25T21:31:28.350Z,97923.22
2023-03-25T21:33:56.387Z,97924.31
2023-03-25T21:36:27.162Z,97924.59
2023-03-25T21:38:59.123Z,97921.78
2023-03-25T21:41:27.263Z,97917.91
2023-03-25T21:43:53.714Z,97920.88
2023-03-25T21:46:24.295Z,97922.69
2023-03-25T21:48:51.231Z,97923.25
2023-03-25T21:51:18.227Z,97917.38
2023-03-25T21:56:42.077Z,97915.03
2023-03-25T21:59:09.279Z,97904.63
2023-03-25T22:01:41.563Z,97911.69
2023-03-25T22:04:08.844Z,97908.06
2023-03-25T22:06:37.076Z,97916.28
2023-03-25T22:09:06.354Z,97917.59
2023-03-25T22:11:35.063Z,97917.13
2023-03-25T22:14:01.822Z,97917.75
2023-03-25T22:16:28.389Z,97918.59
2023-03-25T22:18:54.865Z,97918.16
2023-03-25T22:21:23.851Z,97912.34
2023-03-25T22:23:54.161Z,97919.13
2023-03-25T22:26:21.482Z,97920.47
2023-03-25T22:28:50.544Z,97919.50
2023-03-25T22:31:19.672Z,97919.41
2023-03-25T22:33:46.781Z,97920.75
2023-03-25T22:36:15.416Z,97923.38
2023-03-25T22:38:45.344Z,97929.25
2023-03-25T22:41:14.366Z,97915.69
2023-03-25T22:43:41.378Z,97921.94
2023-03-25T22:46:09.383Z,97927.06
2023-03-25T22:48:39.185Z,97932.31
2023-03-25T22:51:11.186Z,97930.50
2023-03-25T22:53:37.903Z,97932.13
2023-03-25T22:56:05.130Z,97927.78
2023-03-25T22:58:31.857Z,97928.31
2023-03-25T23:01:00.794Z,97928.16
2023-03-25T23:03:28.045Z,97931.47
2023-03-25T23:06:14.848Z,97932.19
2023-03-25T23:08:42.436Z,97934.81
2023-03-25T23:11:20.144Z,97935.72
2023-03-25T23:13:49.804Z,97932.63
2023-03-25T23:16:18.978Z,97939.19
2023-03-25T23:18:46.095Z,97933.84
2023-03-25T23:21:14.951Z,97936.81
2023-03-25T23:23:52.688Z,97934.94
2023-03-25T23:26:36.661Z,97928.25
2023-03-25T23:29:05.547Z,97926.06
2023-03-25T23:31:34.420Z,97929.59
2023-03-25T23:34:06.769Z,97926.78
2023-03-25T23:36:39.300Z,97923.28
2023-03-25T23:39:10.171Z,97922.75
2023-03-25T23:41:37.031Z,97927.53
2023-03-25T23:44:04.751Z,97923.19
2023-03-25T23:46:31.613Z,97926.25
2023-03-25T23:49:04.118Z,97921.56
2023-03-25T23:51:36.359Z,97928.91
2023-03-25T23:54:04.543Z,97928.25
2023-03-25T23:56:31.337Z,97927.81
2023-03-25T23:58:59.376Z,97927.06
